Terminal Aerodrome Forecast
Issued by NWS

Home | Current Version | Previous Version | Graphics & Text | Print | Product List | Glossary On
Versions: 1 2 3 4 5 6 7 8 9 10 11 12 13 14 15 16 17 18 19 20 21 22 23 24 25 26 27 28 29 30 31 32
000
FTUS43 KLOT 060300 AAA
TAFMDW
TAF AMD
KMDW 060301Z 0603/0624 26007KT P6SM SKC
     FM060800 21007KT P6SM SKC
     FM061400 21014G21KT P6SM SCT100
     FM061800 22016G24KT P6SM SCT035 BKN080=

USA.gov is the U.S. government's official web portal to all federal, state and local government web resources and services.